sensor_id;sensor_type;location;lat;lon;timestamp;pressure;altitude;pressure_sealevel;temperature;humidity
6668;BME280;3370;47.712;9.082;2023-05-12T00:00:03;96716.34;;;10.12;100.00
6668;BME280;3370;47.712;9.082;2023-05-12T00:02:29;96716.34;;;10.12;100.00
6668;BME280;3370;47.712;9.082;2023-05-12T00:04:56;96712.16;;;10.09;100.00
6668;BME280;3370;47.712;9.082;2023-05-12T00:07:21;96714.13;;;10.04;100.00
6668;BME280;3370;47.712;9.082;2023-05-12T00:09:47;96710.66;;;10.05;100.00
6668;BME280;3370;47.712;9.082;2023-05-12T00:12:13;96707.97;;;10.08;100.00
6668;BME280;3370;47.712;9.082;2023-05-12T00:14:39;96711.41;;;10.07;100.00
6668;BME280;3370;47.712;9.082;2023-05-12T00:17:05;96706.28;;;10.07;100.00
6668;BME280;3370;47.712;9.082;2023-05-12T00:19:32;96700.75;;;9.97;100.00
6668;BME280;3370;47.712;9.082;2023-05-12T00:21:59;96708.69;;;9.93;100.00
6668;BME280;3370;47.712;9.082;2023-05-12T00:24:25;96695.84;;;9.93;100.00
6668;BME280;3370;47.712;9.082;2023-05-12T00:26:52;96701.59;;;9.98;100.00
6668;BME280;3370;47.712;9.082;2023-05-12T00:29:18;96703.09;;;10.02;100.00
6668;BME280;3370;47.712;9.082;2023-05-12T00:31:44;96703.09;;;10.02;100.00
6668;BME280;3370;47.712;9.082;2023-05-12T00:34:10;96710.03;;;9.83;100.00
6668;BME280;3370;47.712;9.082;2023-05-12T00:36:36;96704.03;;;9.65;100.00
6668;BME280;3370;47.712;9.082;2023-05-12T00:39:01;96705.84;;;9.44;100.00
6668;BME280;3370;47.712;9.082;2023-05-12T00:41:28;96709.94;;;9.48;100.00
6668;BME280;3370;47.712;9.082;2023-05-12T00:43:53;96713.22;;;9.32;100.00
6668;BME280;3370;47.712;9.082;2023-05-12T00:46:20;96703.56;;;9.37;100.00
6668;BME280;3370;47.712;9.082;2023-05-12T00:48:46;96713.22;;;9.32;100.00
6668;BME280;3370;47.712;9.082;2023-05-12T00:51:12;96706.41;;;9.31;100.00
6668;BME280;3370;47.712;9.082;2023-05-12T00:53:40;96708.78;;;9.36;100.00
6668;BME280;3370;47.712;9.082;2023-05-12T00:56:06;96709.72;;;9.33;100.00
6668;BME280;3370;47.712;9.082;2023-05-12T00:58:33;96704.69;;;9.32;100.00
6668;BME280;3370;47.712;9.082;2023-05-12T01:00:59;96703.63;;;9.36;100.00
6668;BME280;3370;47.712;9.082;2023-05-12T01:03:25;96705.22;;;9.38;100.00
6668;BME280;3370;47.712;9.082;2023-05-12T01:06:11;96700.09;;;9.38;100.00
6668;BME280;3370;47.712;9.082;2023-05-12T01:08:38;96703.28;;;9.44;100.00
6668;BME280;3370;47.712;9.082;2023-05-12T01:11:05;96710.69;;;9.50;100.00
6668;BME280;3370;47.712;9.082;2023-05-12T01:13:31;96706.91;;;9.39;100.00
6668;BME280;3370;47.712;9.082;2023-05-12T01:15:59;96708.34;;;9.26;100.00
6668;BME280;3370;47.712;9.082;2023-05-12T01:18:27;96710.44;;;9.18;100.00
6668;BME280;3370;47.712;9.082;2023-05-12T01:20:54;96704.75;;;9.11;100.00
6668;BME280;3370;47.712;9.082;2023-05-12T01:23:26;96701.13;;;9.15;100.00
6668;BME280;3370;47.712;9.082;2023-05-12T01:25:54;96695.03;;;9.18;100.00
6668;BME280;3370;47.712;9.082;2023-05-12T01:28:20;96701.91;;;9.17;100.00
6668;BME280;3370;47.712;9.082;2023-05-12T01:30:47;96697.59;;;9.18;100.00
6668;BME280;3370;47.712;9.082;2023-05-12T01:33:13;96697.38;;;9.23;100.00
6668;BME280;3370;47.712;9.082;2023-05-12T01:35:39;96691.78;;;9.14;100.00
6668;BME280;3370;47.712;9.082;2023-05-12T01:38:05;96686.84;;;9.10;100.00
6668;BME280;3370;47.712;9.082;2023-05-12T01:40:31;96691.38;;;9.05;100.00
6668;BME280;3370;47.712;9.082;2023-05-12T01:42:56;96695.88;;;8.99;100.00
6668;BME280;3370;47.712;9.082;2023-05-12T01:45:22;96699.84;;;8.86;100.00
6668;BME280;3370;47.712;9.082;2023-05-12T01:47:48;96697.44;;;8.83;100.00
6668;BME280;3370;47.712;9.082;2023-05-12T01:50:14;96704.16;;;8.86;100.00
6668;BME280;3370;47.712;9.082;2023-05-12T01:52:39;96697.84;;;8.74;100.00
6668;BME280;3370;47.712;9.082;2023-05-12T01:55:05;96707.19;;;8.75;100.00
6668;BME280;3370;47.712;9.082;2023-05-12T01:57:31;96698.69;;;8.74;100.00
6668;BME280;3370;47.712;9.082;2023-05-12T01:59:57;96697.63;;;8.78;100.00
6668;BME280;3370;47.712;9.082;2023-05-12T02:02:23;96707.50;;;8.88;100.00
6668;BME280;3370;47.712;9.082;2023-05-12T02:04:48;96710.28;;;8.83;100.00
6668;BME280;3370;47.712;9.082;2023-05-12T02:07:14;96707.75;;;8.81;100.00
6668;BME280;3370;47.712;9.082;2023-05-12T02:09:40;96706.75;;;8.65;100.00
6668;BME280;3370;47.712;9.082;2023-05-12T02:12:06;96697.59;;;8.59;100.00
6668;BME280;3370;47.712;9.082;2023-05-12T02:14:32;96705.78;;;8.68;100.00
6668;BME280;3370;47.712;9.082;2023-05-12T02:16:58;96702.28;;;8.70;100.00
6668;BME280;3370;47.712;9.082;2023-05-12T02:19:24;96704.78;;;8.51;100.00
6668;BME280;3370;47.712;9.082;2023-05-12T02:21:50;96703.09;;;8.50;100.00
6668;BME280;3370;47.712;9.082;2023-05-12T02:24:16;96699.94;;;8.45;100.00
6668;BME280;3370;47.712;9.082;2023-05-12T02:26:41;96689.06;;;8.38;100.00
6668;BME280;3370;47.712;9.082;2023-05-12T02:29:07;96700.69;;;8.47;100.00
6668;BME280;3370;47.712;9.082;2023-05-12T02:31:33;96698.13;;;8.47;100.00
6668;BME280;3370;47.712;9.082;2023-05-12T02:33:59;96697.09;;;8.51;100.00
6668;BME280;3370;47.712;9.082;2023-05-12T02:36:25;96692.47;;;8.59;100.00
6668;BME280;3370;47.712;9.082;2023-05-12T02:38:51;96694.13;;;8.60;100.00
6668;BME280;3370;47.712;9.082;2023-05-12T02:41:17;96688.81;;;8.44;100.00
6668;BME280;3370;47.712;9.082;2023-05-12T02:43:43;96693.00;;;8.47;100.00
6668;BME280;3370;47.712;9.082;2023-05-12T02:46:08;96695.16;;;8.56;100.00
6668;BME280;3370;47.712;9.082;2023-05-12T02:48:34;96689.81;;;8.61;100.00
6668;BME280;3370;47.712;9.082;2023-05-12T02:51:00;96688.53;;;8.52;100.00
6668;BME280;3370;47.712;9.082;2023-05-12T02:53:26;96682.75;;;8.47;100.00
6668;BME280;3370;47.712;9.082;2023-05-12T02:55:52;96692.72;;;8.53;100.00
6668;BME280;3370;47.712;9.082;2023-05-12T02:58:18;96689.91;;;8.59;100.00
6668;BME280;3370;47.712;9.082;2023-05-12T03:00:44;96692.09;;;8.69;100.00
6668;BME280;3370;47.712;9.082;2023-05-12T03:03:09;96688.38;;;8.55;100.00
6668;BME280;3370;47.712;9.082;2023-05-12T03:05:35;96684.41;;;8.48;100.00
6668;BME280;3370;47.712;9.082;2023-05-12T03:08:01;96680.94;;;8.49;100.00
6668;BME280;3370;47.712;9.082;2023-05-12T03:10:27;96688.38;;;8.55;100.00
6668;BME280;3370;47.712;9.082;2023-05-12T03:12:52;96689.00;;;8.60;100.00
6668;BME280;3370;47.712;9.082;2023-05-12T03:15:18;96694.00;;;8.63;100.00
6668;BME280;3370;47.712;9.082;2023-05-12T03:17:44;96687.91;;;8.66;100.00
6668;BME280;3370;47.712;9.082;2023-05-12T03:20:10;96681.69;;;8.72;100.00
6668;BME280;3370;47.712;9.082;2023-05-12T03:22:36;96682.47;;;8.74;100.00
6668;BME280;3370;47.712;9.082;2023-05-12T03:25:03;96686.63;;;8.76;100.00
6668;BME280;3370;47.712;9.082;2023-05-12T03:27:31;96693.34;;;8.79;100.00
6668;BME280;3370;47.712;9.082;2023-05-12T03:29:57;96688.91;;;8.82;100.00
6668;BME280;3370;47.712;9.082;2023-05-12T03:32:25;96692.94;;;8.88;100.00
6668;BME280;3370;47.712;9.082;2023-05-12T03:34:52;96690.28;;;8.90;100.00
6668;BME280;3370;47.712;9.082;2023-05-12T03:37:18;96691.00;;;8.93;100.00
6668;BME280;3370;47.712;9.082;2023-05-12T03:39:44;96678.88;;;8.97;100.00
6668;BME280;3370;47.712;9.082;2023-05-12T03:42:10;96686.16;;;9.06;100.00
6668;BME280;3370;47.712;9.082;2023-05-12T03:44:35;96688.81;;;9.05;100.00
6668;BME280;3370;47.712;9.082;2023-05-12T03:47:01;96676.88;;;9.04;100.00
6668;BME280;3370;47.712;9.082;2023-05-12T03:49:27;96683.53;;;9.08;100.00
6668;BME280;3370;47.712;9.082;2023-05-12T03:51:53;96686.03;;;9.09;100.00
6668;BME280;3370;47.712;9.082;2023-05-12T03:54:18;96683.41;;;9.11;100.00
6668;BME280;3370;47.712;9.082;2023-05-12T03:56:44;96685.91;;;9.12;100.00
6668;BME280;3370;47.712;9.082;2023-05-12T03:59:10;96684.34;;;9.08;100.00
6668;BME280;3370;47.712;9.082;2023-05-12T04:01:36;96682.56;;;9.10;100.00
6668;BME280;3370;47.712;9.082;2023-05-12T04:04:02;96686.66;;;9.14;100.00
6668;BME280;3370;47.712;9.082;2023-05-12T04:06:28;96680.00;;;9.10;100.00
6668;BME280;3370;47.712;9.082;2023-05-12T04:08:54;96681.47;;;9.16;100.00
6668;BME280;3370;47.712;9.082;2023-05-12T04:11:20;96680.06;;;9.28;100.00
6668;BME280;3370;47.712;9.082;2023-05-12T04:13:45;96679.22;;;9.27;100.00
6668;BME280;3370;47.712;9.082;2023-05-12T04:16:11;96684.50;;;9.05;100.00
6668;BME280;3370;47.712;9.082;2023-05-12T04:18:37;96685.31;;;8.87;100.00
6668;BME280;3370;47.712;9.082;2023-05-12T04:21:03;96677.69;;;8.85;100.00
6668;BME280;3370;47.712;9.082;2023-05-12T04:23:30;96681.59;;;8.94;100.00
6668;BME280;3370;47.712;9.082;2023-05-12T04:25:56;96679.56;;;9.00;100.00
6668;BME280;3370;47.712;9.082;2023-05-12T04:28:22;96681.66;;;9.11;100.00
6668;BME280;3370;47.712;9.082;2023-05-12T04:30:47;96681.47;;;9.16;100.00
6668;BME280;3370;47.712;9.082;2023-05-12T04:33:13;96687.34;;;9.18;100.00
6668;BME280;3370;47.712;9.082;2023-05-12T04:35:39;96690.53;;;9.23;100.00
6668;BME280;3370;47.712;9.082;2023-05-12T04:38:04;96697.06;;;9.30;100.00
6668;BME280;3370;47.712;9.082;2023-05-12T04:40:31;96698.28;;;9.40;100.00
6668;BME280;3370;47.712;9.082;2023-05-12T04:42:56;96701.28;;;9.50;100.00
6668;BME280;3370;47.712;9.082;2023-05-12T04:45:22;96703.63;;;9.55;100.00
6668;BME280;3370;47.712;9.082;2023-05-12T04:47:48;96698.16;;;9.63;100.00
6668;BME280;3370;47.712;9.082;2023-05-12T04:50:14;96702.28;;;9.65;100.00
6668;BME280;3370;47.712;9.082;2023-05-12T04:52:39;96704.44;;;9.74;100.00
6668;BME280;3370;47.712;9.082;2023-05-12T04:55:06;96707.00;;;9.74;100.00
6668;BME280;3370;47.712;9.082;2023-05-12T04:57:32;96709.13;;;9.84;100.00
6668;BME280;3370;47.712;9.082;2023-05-12T04:59:58;96713.38;;;9.85;100.00
6668;BME280;3370;47.712;9.082;2023-05-12T05:02:24;96707.16;;;9.89;100.00
6668;BME280;3370;47.712;9.082;2023-05-12T05:04:50;96713.81;;;9.93;100.00
6668;BME280;3370;47.712;9.082;2023-05-12T05:07:17;96712.00;;;9.95;100.00
6668;BME280;3370;47.712;9.082;2023-05-12T05:09:42;96721.31;;;9.97;100.00
6668;BME280;3370;47.712;9.082;2023-05-12T05:12:08;96715.03;;;10.03;100.00
6668;BME280;3370;47.712;9.082;2023-05-12T05:14:34;96721.16;;;10.01;100.00
6668;BME280;3370;47.712;9.082;2023-05-12T05:17:00;96716.78;;;10.03;100.00
6668;BME280;3370;47.712;9.082;2023-05-12T05:19:26;96723.50;;;10.05;100.00
6668;BME280;3370;47.712;9.082;2023-05-12T05:21:52;96714.75;;;10.09;100.00
6668;BME280;3370;47.712;9.082;2023-05-12T05:24:18;96719.59;;;10.15;100.00
6668;BME280;3370;47.712;9.082;2023-05-12T05:26:43;96717.66;;;10.21;100.00
6668;BME280;3370;47.712;9.082;2023-05-12T05:29:10;96712.19;;;10.27;100.00
6668;BME280;3370;47.712;9.082;2023-05-12T05:31:36;96720.38;;;10.35;100.00
6668;BME280;3370;47.712;9.082;2023-05-12T05:34:02;96721.16;;;10.37;100.00
6668;BME280;3370;47.712;9.082;2023-05-12T05:36:28;96723.56;;;10.40;100.00
6668;BME280;3370;47.712;9.082;2023-05-12T05:38:54;96720.75;;;10.45;100.00
6668;BME280;3370;47.712;9.082;2023-05-12T05:41:20;96725.75;;;10.48;100.00
6668;BME280;3370;47.712;9.082;2023-05-12T05:43:47;96719.63;;;10.50;100.00
6668;BME280;3370;47.712;9.082;2023-05-12T05:46:13;96718.47;;;10.56;100.00
6668;BME280;3370;47.712;9.082;2023-05-12T05:48:39;96714.03;;;10.60;100.00
6668;BME280;3370;47.712;9.082;2023-05-12T05:51:04;96716.25;;;10.66;100.00
6668;BME280;3370;47.712;9.082;2023-05-12T05:53:31;96713.53;;;10.69;100.00
6668;BME280;3370;47.712;9.082;2023-05-12T05:55:56;96718.53;;;10.72;100.00
6668;BME280;3370;47.712;9.082;2023-05-12T05:58:22;96720.88;;;10.77;100.00
6668;BME280;3370;47.712;9.082;2023-05-12T06:00:48;96726.47;;;10.85;100.00
6668;BME280;3370;47.712;9.082;2023-05-12T06:03:14;96718.41;;;10.91;100.00
6668;BME280;3370;47.712;9.082;2023-05-12T06:05:41;96718.13;;;10.97;100.00
6668;BME280;3370;47.712;9.082;2023-05-12T06:08:08;96722.13;;;11.03;100.00
6668;BME280;3370;47.712;9.082;2023-05-12T06:10:36;96733.75;;;11.10;100.00
6668;BME280;3370;47.712;9.082;2023-05-12T06:13:01;96732.75;;;11.12;100.00
6668;BME280;3370;47.712;9.082;2023-05-12T06:15:27;96735.09;;;11.17;100.00
6668;BME280;3370;47.712;9.082;2023-05-12T06:17:53;96728.53;;;11.27;100.00
6668;BME280;3370;47.712;9.082;2023-05-12T06:20:19;96724.16;;;11.29;100.00
6668;BME280;3370;47.712;9.082;2023-05-12T06:22:45;96728.97;;;11.36;100.00
6668;BME280;3370;47.712;9.082;2023-05-12T06:25:11;96734.78;;;11.39;100.00
6668;BME280;3370;47.712;9.082;2023-05-12T06:27:37;96734.53;;;11.44;100.00
6668;BME280;3370;47.712;9.082;2023-05-12T06:30:03;96727.38;;;11.49;100.00
6668;BME280;3370;47.712;9.082;2023-05-12T06:32:29;96732.81;;;11.60;100.00
6668;BME280;3370;47.712;9.082;2023-05-12T06:34:55;96728.63;;;11.58;100.00
6668;BME280;3370;47.712;9.082;2023-05-12T06:37:20;96734.13;;;11.67;100.00
6668;BME280;3370;47.712;9.082;2023-05-12T06:39:46;96732.13;;;11.73;100.00
6668;BME280;3370;47.712;9.082;2023-05-12T06:42:12;96737.25;;;11.88;100.00
6668;BME280;3370;47.712;9.082;2023-05-12T06:44:38;96732.66;;;11.95;100.00
6668;BME280;3370;47.712;9.082;2023-05-12T06:47:04;96738.94;;;12.05;100.00
6668;BME280;3370;47.712;9.082;2023-05-12T06:49:30;96734.53;;;12.07;100.00
6668;BME280;3370;47.712;9.082;2023-05-12T06:51:57;96744.94;;;12.06;97.12
6668;BME280;3370;47.712;9.082;2023-05-12T06:54:22;96739.44;;;11.96;95.71
6668;BME280;3370;47.712;9.082;2023-05-12T06:56:48;96735.28;;;11.78;98.07
6668;BME280;3370;47.712;9.082;2023-05-12T06:59:14;96735.94;;;11.65;98.87
6668;BME280;3370;47.712;9.082;2023-05-12T07:01:40;96735.44;;;11.75;100.00
6668;BME280;3370;47.712;9.082;2023-05-12T07:04:07;96743.44;;;11.86;100.00
6668;BME280;3370;47.712;9.082;2023-05-12T07:06:33;96733.63;;;11.61;97.25
6668;BME280;3370;47.712;9.082;2023-05-12T07:08:59;96735.38;;;11.60;98.54
6668;BME280;3370;47.712;9.082;2023-05-12T07:11:24;96731.97;;;11.60;100.00
6668;BME280;3370;47.712;9.082;2023-05-12T07:13:51;96729.47;;;11.74;100.00
6668;BME280;3370;47.712;9.082;2023-05-12T07:16:18;96732.63;;;11.79;100.00
6668;BME280;3370;47.712;9.082;2023-05-12T07:18:44;96726.16;;;12.04;97.77
6668;BME280;3370;47.712;9.082;2023-05-12T07:21:11;96724.97;;;11.78;97.13
6668;BME280;3370;47.712;9.082;2023-05-12T07:23:37;96724.22;;;11.76;98.49
6668;BME280;3370;47.712;9.082;2023-05-12T07:26:06;96720.50;;;11.97;98.35
6668;BME280;3370;47.712;9.082;2023-05-12T07:28:33;96720.91;;;11.89;95.11
6668;BME280;3370;47.712;9.082;2023-05-12T07:31:07;96721.25;;;11.36;97.49
6668;BME280;3370;47.712;9.082;2023-05-12T07:33:34;96722.91;;;11.21;99.31
6668;BME280;3370;47.712;9.082;2023-05-12T07:36:01;96719.91;;;11.28;100.00
6668;BME280;3370;47.712;9.082;2023-05-12T07:38:27;96722.25;;;11.00;100.00
6668;BME280;3370;47.712;9.082;2023-05-12T07:40:53;96719.94;;;11.11;100.00
6668;BME280;3370;47.712;9.082;2023-05-12T07:43:19;96723.81;;;11.36;98.45
6668;BME280;3370;47.712;9.082;2023-05-12T07:45:45;96726.63;;;11.31;98.72
6668;BME280;3370;47.712;9.082;2023-05-12T07:48:11;96718.09;;;11.46;98.30
6668;BME280;3370;47.712;9.082;2023-05-12T07:50:37;96719.00;;;11.61;97.50
6668;BME280;3370;47.712;9.082;2023-05-12T07:53:07;96723.34;;;11.77;99.46
6668;BME280;3370;47.712;9.082;2023-05-12T07:55:33;96721.16;;;11.69;96.38
6668;BME280;3370;47.712;9.082;2023-05-12T08:00:27;96719.25;;;11.73;92.99
6668;BME280;3370;47.712;9.082;2023-05-12T08:02:53;96726.81;;;11.76;93.80
6668;BME280;3370;47.712;9.082;2023-05-12T08:05:19;96725.13;;;11.75;96.33
6668;BME280;3370;47.712;9.082;2023-05-12T08:07:45;96718.19;;;11.61;97.74
6668;BME280;3370;47.712;9.082;2023-05-12T08:10:12;96719.59;;;11.66;97.57
6668;BME280;3370;47.712;9.082;2023-05-12T08:12:39;96726.91;;;11.90;96.83
6668;BME280;3370;47.712;9.082;2023-05-12T08:15:06;96725.78;;;11.78;95.57
6668;BME280;3370;47.712;9.082;2023-05-12T08:17:32;96725.66;;;11.97;95.63
6668;BME280;3370;47.712;9.082;2023-05-12T08:19:58;96721.66;;;12.07;94.22
6668;BME280;3370;47.712;9.082;2023-05-12T08:22:24;96719.78;;;12.25;93.51
6668;BME280;3370;47.712;9.082;2023-05-12T08:24:50;96720.00;;;12.37;91.85
6668;BME280;3370;47.712;9.082;2023-05-12T08:27:17;96719.28;;;12.49;90.98
6668;BME280;3370;47.712;9.082;2023-05-12T08:29:43;96721.38;;;12.42;90.18
6668;BME280;3370;47.712;9.082;2023-05-12T08:32:09;96717.63;;;12.18;89.70
6668;BME280;3370;47.712;9.082;2023-05-12T08:34:35;96711.28;;;12.23;92.19
6668;BME280;3370;47.712;9.082;2023-05-12T08:37:00;96718.78;;;12.28;94.80
6668;BME280;3370;47.712;9.082;2023-05-12T08:39:26;96714.63;;;12.40;87.26
6668;BME280;3370;47.712;9.082;2023-05-12T08:42:36;96712.03;;;12.84;88.99
6668;BME280;3370;47.712;9.082;2023-05-12T08:45:06;96711.03;;;13.16;88.61
6668;BME280;3370;47.712;9.082;2023-05-12T08:47:33;96714.97;;;13.21;87.94
6668;BME280;3370;47.712;9.082;2023-05-12T08:50:01;96715.19;;;13.18;87.00
6668;BME280;3370;47.712;9.082;2023-05-12T08:52:33;96718.41;;;13.08;83.15
6668;BME280;3370;47.712;9.082;2023-05-12T08:55:00;96713.50;;;12.89;84.80
6668;BME280;3370;47.712;9.082;2023-05-12T08:57:26;96713.34;;;13.06;87.63
6668;BME280;3370;47.712;9.082;2023-05-12T08:59:56;96714.16;;;13.21;86.40
6668;BME280;3370;47.712;9.082;2023-05-12T09:02:24;96703.56;;;13.11;82.47
6668;BME280;3370;47.712;9.082;2023-05-12T09:04:51;96714.97;;;13.21;81.00
6668;BME280;3370;47.712;9.082;2023-05-12T09:07:21;96716.84;;;13.05;81.28
6668;BME280;3370;47.712;9.082;2023-05-12T09:09:56;96720.53;;;13.01;81.67
6668;BME280;3370;47.712;9.082;2023-05-12T09:12:24;96717.78;;;13.18;82.99
6668;BME280;3370;47.712;9.082;2023-05-12T09:15:06;96721.63;;;13.26;81.25
6668;BME280;3370;47.712;9.082;2023-05-12T09:17:34;96718.50;;;13.06;77.43
6668;BME280;3370;47.712;9.082;2023-05-12T09:19:59;96718.69;;;13.32;76.22
6668;BME280;3370;47.712;9.082;2023-05-12T09:22:32;96720.59;;;13.28;76.65
6668;BME280;3370;47.712;9.082;2023-05-12T09:24:59;96717.06;;;13.31;76.54
6668;BME280;3370;47.712;9.082;2023-05-12T09:27:28;96725.44;;;13.34;81.10
6668;BME280;3370;47.712;9.082;2023-05-12T09:29:55;96718.50;;;13.49;76.42
6668;BME280;3370;47.712;9.082;2023-05-12T09:32:39;96720.16;;;13.50;75.87
6668;BME280;3370;47.712;9.082;2023-05-12T09:35:07;96718.84;;;13.57;74.28
6668;BME280;3370;47.712;9.082;2023-05-12T09:37:36;96714.63;;;13.56;74.04
6668;BME280;3370;47.712;9.082;2023-05-12T09:40:07;96714.03;;;13.66;73.08
6668;BME280;3370;47.712;9.082;2023-05-12T09:42:34;96708.91;;;13.78;77.63
6668;BME280;3370;47.712;9.082;2023-05-12T09:45:07;96709.56;;;13.82;75.45
6668;BME280;3370;47.712;9.082;2023-05-12T09:47:38;96706.25;;;13.80;70.62
6668;BME280;3370;47.712;9.082;2023-05-12T09:50:06;96704.34;;;13.96;73.11
6668;BME280;3370;47.712;9.082;2023-05-12T09:52:38;96706.34;;;14.06;74.55
6668;BME280;3370;47.712;9.082;2023-05-12T09:55:09;96702.59;;;14.10;71.22
6668;BME280;3370;47.712;9.082;2023-05-12T09:57:41;96699.88;;;14.26;70.75
6668;BME280;3370;47.712;9.082;2023-05-12T10:00:09;96696.72;;;14.61;74.19
6668;BME280;3370;47.712;9.082;2023-05-12T10:02:42;96695.09;;;14.72;70.60
6668;BME280;3370;47.712;9.082;2023-05-12T10:05:19;96693.56;;;14.43;72.26
6668;BME280;3370;47.712;9.082;2023-05-12T10:07:48;96694.72;;;14.51;72.12
6668;BME280;3370;47.712;9.082;2023-05-12T10:10:19;96703.81;;;14.31;68.93
6668;BME280;3370;47.712;9.082;2023-05-12T10:12:46;96689.94;;;14.19;71.00
6668;BME280;3370;47.712;9.082;2023-05-12T10:15:13;96693.34;;;14.33;73.18
6668;BME280;3370;47.712;9.082;2023-05-12T10:17:42;96701.03;;;14.34;69.58
6668;BME280;3370;47.712;9.082;2023-05-12T10:20:09;96697.25;;;14.13;68.97
6668;BME280;3370;47.712;9.082;2023-05-12T10:22:38;96701.47;;;14.14;69.87
6668;BME280;3370;47.712;9.082;2023-05-12T10:25:06;96694.56;;;14.14;71.87
6668;BME280;3370;47.712;9.082;2023-05-12T10:27:36;96690.44;;;14.25;72.29
6668;BME280;3370;47.712;9.082;2023-05-12T10:30:02;96693.50;;;14.04;70.19
6668;BME280;3370;47.712;9.082;2023-05-12T10:32:29;96689.81;;;14.34;71.55
6668;BME280;3370;47.712;9.082;2023-05-12T10:35:09;96693.97;;;14.36;71.28
6668;BME280;3370;47.712;9.082;2023-05-12T10:37:35;96694.91;;;14.35;69.72
6668;BME280;3370;47.712;9.082;2023-05-12T10:40:05;96688.41;;;14.55;72.96
6668;BME280;3370;47.712;9.082;2023-05-12T10:42:40;96684.59;;;14.61;71.32
6668;BME280;3370;47.712;9.082;2023-05-12T10:45:18;96684.91;;;14.95;68.99
6668;BME280;3370;47.712;9.082;2023-05-12T10:47:46;96685.25;;;14.90;68.93
6668;BME280;3370;47.712;9.082;2023-05-12T10:50:12;96686.16;;;15.02;70.09
6668;BME280;3370;47.712;9.082;2023-05-12T10:52:58;96684.66;;;15.24;69.71
6668;BME280;3370;47.712;9.082;2023-05-12T10:55:40;96690.03;;;15.46;69.18
6668;BME280;3370;47.712;9.082;2023-05-12T10:58:11;96688.22;;;15.60;67.73
6668;BME280;3370;47.712;9.082;2023-05-12T11:00:49;96683.09;;;15.71;65.86
6668;BME280;3370;47.712;9.082;2023-05-12T11:03:21;96686.38;;;15.73;66.32
6668;BME280;3370;47.712;9.082;2023-05-12T11:06:04;96684.09;;;16.05;68.77
6668;BME280;3370;47.712;9.082;2023-05-12T11:08:30;96680.91;;;16.37;69.01
6668;BME280;3370;47.712;9.082;2023-05-12T11:11:00;96682.47;;;16.51;68.01
6668;BME280;3370;47.712;9.082;2023-05-12T11:13:27;96684.91;;;16.88;65.17
6668;BME280;3370;47.712;9.082;2023-05-12T11:15:55;96679.53;;;17.57;64.91
6668;BME280;3370;47.712;9.082;2023-05-12T11:18:22;96673.44;;;18.23;62.56
6668;BME280;3370;47.712;9.082;2023-05-12T11:20:49;96673.44;;;19.27;57.20
6668;BME280;3370;47.712;9.082;2023-05-12T11:23:28;96670.59;;;20.09;53.48
6668;BME280;3370;47.712;9.082;2023-05-12T11:25:54;96671.94;;;20.33;51.04
6668;BME280;3370;47.712;9.082;2023-05-12T11:28:20;96667.94;;;20.68;50.34
6668;BME280;3370;47.712;9.082;2023-05-12T11:30:53;96669.47;;;20.41;50.15
6668;BME280;3370;47.712;9.082;2023-05-12T11:33:22;96668.09;;;20.37;49.05
6668;BME280;3370;47.712;9.082;2023-05-12T11:35:49;96666.72;;;19.94;50.41
6668;BME280;3370;47.712;9.082;2023-05-12T11:38:18;96663.88;;;19.27;54.89
6668;BME280;3370;47.712;9.082;2023-05-12T11:40:46;96662.47;;;19.23;56.39
6668;BME280;3370;47.712;9.082;2023-05-12T11:43:12;96665.25;;;19.31;54.46
6668;BME280;3370;47.712;9.082;2023-05-12T11:45:39;96666.03;;;18.70;55.15
6668;BME280;3370;47.712;9.082;2023-05-12T11:48:12;96665.19;;;18.60;55.46
6668;BME280;3370;47.712;9.082;2023-05-12T11:50:43;96665.00;;;18.52;54.21
6668;BME280;3370;47.712;9.082;2023-05-12T11:53:17;96665.91;;;18.72;55.59
6668;BME280;3370;47.712;9.082;2023-05-12T11:55:55;96675.16;;;18.34;56.09
6668;BME280;3370;47.712;9.082;2023-05-12T11:58:24;96673.69;;;18.62;53.12
6668;BME280;3370;47.712;9.082;2023-05-12T12:00:52;96675.66;;;19.22;57.60
6668;BME280;3370;47.712;9.082;2023-05-12T12:03:18;96671.94;;;19.94;56.18
6668;BME280;3370;47.712;9.082;2023-05-12T12:06:03;96671.13;;;20.62;52.90
6668;BME280;3370;47.712;9.082;2023-05-12T12:08:31;96676.16;;;21.48;50.10
6668;BME280;3370;47.712;9.082;2023-05-12T12:10:57;96675.47;;;21.46;44.66
6668;BME280;3370;47.712;9.082;2023-05-12T12:13:24;96674.09;;;20.77;50.71
6668;BME280;3370;47.712;9.082;2023-05-12T12:15:51;96684.84;;;20.44;51.03
6668;BME280;3370;47.712;9.082;2023-05-12T12:18:17;96673.28;;;20.76;52.00
6668;BME280;3370;47.712;9.082;2023-05-12T12:20:45;96664.00;;;21.01;50.00
6668;BME280;3370;47.712;9.082;2023-05-12T12:23:11;96672.44;;;20.85;49.97
6668;BME280;3370;47.712;9.082;2023-05-12T12:25:37;96670.91;;;21.20;51.69
6668;BME280;3370;47.712;9.082;2023-05-12T12:28:03;96670.34;;;21.27;50.88
6668;BME280;3370;47.712;9.082;2023-05-12T12:30:29;96673.47;;;21.02;50.98
6668;BME280;3370;47.712;9.082;2023-05-12T12:32:55;96677.00;;;21.11;48.12
6668;BME280;3370;47.712;9.082;2023-05-12T12:35:21;96671.56;;;20.95;47.74
6668;BME280;3370;47.712;9.082;2023-05-12T12:37:48;96681.34;;;20.83;47.97
6668;BME280;3370;47.712;9.082;2023-05-12T12:40:17;96683.97;;;20.93;48.45
6668;BME280;3370;47.712;9.082;2023-05-12T12:42:44;96674.53;;;20.72;49.18
6668;BME280;3370;47.712;9.082;2023-05-12T12:45:11;96668.06;;;20.57;50.42
6668;BME280;3370;47.712;9.082;2023-05-12T12:47:38;96666.56;;;20.64;50.58
6668;BME280;3370;47.712;9.082;2023-05-12T12:50:06;96671.13;;;20.62;50.37
6668;BME280;3370;47.712;9.082;2023-05-12T12:52:35;96665.03;;;20.52;50.16
6668;BME280;3370;47.712;9.082;2023-05-12T12:55:02;96662.84;;;20.57;49.20
6668;BME280;3370;47.712;9.082;2023-05-12T12:57:28;96659.56;;;20.55;51.98
6668;BME280;3370;47.712;9.082;2023-05-12T12:59:54;96669.59;;;20.49;49.49
6668;BME280;3370;47.712;9.082;2023-05-12T13:02:20;96660.09;;;20.48;48.72
6668;BME280;3370;47.712;9.082;2023-05-12T13:04:46;96664.50;;;20.58;48.18
6668;BME280;3370;47.712;9.082;2023-05-12T13:07:11;96658.16;;;20.60;48.67
6668;BME280;3370;47.712;9.082;2023-05-12T13:09:37;96660.75;;;20.70;49.51
6668;BME280;3370;47.712;9.082;2023-05-12T13:12:04;96665.53;;;20.94;48.78
6668;BME280;3370;47.712;9.082;2023-05-12T13:14:30;96655.72;;;21.61;48.42
6668;BME280;3370;47.712;9.082;2023-05-12T13:16:56;96648.19;;;22.30;47.21
6668;BME280;3370;47.712;9.082;2023-05-12T13:19:21;96649.88;;;22.66;45.76
6668;BME280;3370;47.712;9.082;2023-05-12T13:21:47;96645.78;;;23.24;44.45